createdAt,value
2018-12-26T00:00:21.230Z,22.2
2018-12-26T00:01:23.715Z,22.2
2018-12-26T00:02:26.266Z,22.2
2018-12-26T00:03:28.424Z,22.2
2018-12-26T00:04:30.595Z,22.2
2018-12-26T00:05:33.074Z,22.2
2018-12-26T00:06:35.625Z,22.2
2018-12-26T00:07:37.794Z,22.2
2018-12-26T00:08:39.951Z,22.2
2018-12-26T00:09:42.389Z,22.3
2018-12-26T00:10:44.814Z,22.3
2018-12-26T00:11:46.961Z,22.3
2018-12-26T00:12:49.132Z,22.3
2018-12-26T00:13:51.564Z,22.4
2018-12-26T00:14:53.441Z,22.4
2018-12-26T00:15:55.873Z,22.4
2018-12-26T00:16:58.303Z,22.5
2018-12-26T00:18:00.482Z,22.5
2018-12-26T00:19:03.027Z,22.5
2018-12-26T00:20:05.824Z,22.5
2018-12-26T00:21:08.551Z,22.5
2018-12-26T00:22:10.987Z,22.4
2018-12-26T00:23:13.414Z,22.4
2018-12-26T00:24:16.309Z,22.4
2018-12-26T00:25:19.073Z,22.4
2018-12-26T00:26:21.241Z,22.3
2018-12-26T00:27:23.395Z,22.3
2018-12-26T00:28:26.355Z,22.3
2018-12-26T00:29:28.504Z,22.3
2018-12-26T00:30:30.414Z,22.4
2018-12-26T00:31:32.290Z,22.4
2018-12-26T00:32:34.724Z,22.4
2018-12-26T00:33:37.170Z,22.5
2018-12-26T00:34:39.324Z,22.5
2018-12-26T00:35:41.490Z,22.5
2018-12-26T00:36:43.633Z,22.5
2018-12-26T00:37:45.807Z,22.5
2018-12-26T00:38:48.235Z,22.5
2018-12-26T00:39:49.835Z,22.6
2018-12-26T00:40:51.984Z,22.6
2018-12-26T00:41:54.425Z,22.6
2018-12-26T00:42:56.851Z,22.6
2018-12-26T00:43:59.279Z,22.7
2018-12-26T00:45:01.691Z,22.7
2018-12-26T00:46:03.574Z,22.7
2018-12-26T00:47:05.478Z,22.7
2018-12-26T00:48:07.376Z,22.7
2018-12-26T00:49:09.537Z,22.7
2018-12-26T00:50:11.957Z,22.8
2018-12-26T00:51:14.384Z,22.7
2018-12-26T00:52:16.537Z,22.8
2018-12-26T00:53:18.707Z,22.8
2018-12-26T00:54:21.139Z,22.8
2018-12-26T00:55:23.584Z,22.8
2018-12-26T00:56:25.729Z,22.8
2018-12-26T00:57:27.865Z,22.8
2018-12-26T00:58:30.015Z,22.8
2018-12-26T00:59:32.140Z,22.9
2018-12-26T01:00:34.306Z,22.9
2018-12-26T01:01:36.796Z,22.9
2018-12-26T01:02:38.936Z,22.9
2018-12-26T01:03:41.443Z,22.9
2018-12-26T01:04:43.340Z,22.9
2018-12-26T01:05:45.812Z,22.9
2018-12-26T01:06:48.415Z,22.9
2018-12-26T01:07:50.885Z,23
2018-12-26T01:08:53.311Z,23
2018-12-26T01:09:55.755Z,23
2018-12-26T01:10:57.605Z,23
2018-12-26T01:11:59.750Z,23
2018-12-26T01:13:01.908Z,23
2018-12-26T01:14:04.345Z,23
2018-12-26T01:15:06.764Z,23
2018-12-26T01:16:09.210Z,23
2018-12-26T01:17:11.365Z,23
2018-12-26T01:18:13.262Z,23
2018-12-26T01:19:15.710Z,23
2018-12-26T01:20:18.139Z,23
2018-12-26T01:21:20.276Z,23
2018-12-26T01:22:22.711Z,23
2018-12-26T01:23:24.884Z,23
2018-12-26T01:24:27.314Z,23
2018-12-26T01:25:29.736Z,23.1
2018-12-26T01:26:31.615Z,23.1
2018-12-26T01:27:34.042Z,23.1
2018-12-26T01:28:36.486Z,23.1
2018-12-26T01:29:38.915Z,23.1
2018-12-26T01:30:41.353Z,23.1
2018-12-26T01:31:43.490Z,23.1
2018-12-26T01:32:45.909Z,23.1
2018-12-26T01:33:48.319Z,23.1
2018-12-26T01:34:50.741Z,23.1
2018-12-26T01:35:52.911Z,23.1
2018-12-26T01:36:55.339Z,23.1
2018-12-26T01:37:57.784Z,23.1
2018-12-26T01:39:00.208Z,23.1
2018-12-26T01:40:02.657Z,23.1
2018-12-26T01:41:05.096Z,23.1
2018-12-26T01:42:07.250Z,23.1
2018-12-26T01:43:09.697Z,23.1
2018-12-26T01:44:11.847Z,23.1
2018-12-26T01:45:14.013Z,23.1
2018-12-26T01:46:16.449Z,23.1
2018-12-26T01:47:18.611Z,23.1
2018-12-26T01:48:21.046Z,23.1
2018-12-26T01:49:23.485Z,23.1
2018-12-26T01:50:25.353Z,23.2
2018-12-26T01:51:27.774Z,23.2
2018-12-26T01:52:30.207Z,23.2
2018-12-26T01:53:32.637Z,23.2
2018-12-26T01:54:35.081Z,23.2
2018-12-26T01:55:37.515Z,23.2
2018-12-26T01:56:39.935Z,23.2
2018-12-26T01:57:42.097Z,23.2
2018-12-26T01:58:44.543Z,23.2
2018-12-26T01:59:46.971Z,23.2
2018-12-26T02:00:49.200Z,23.2
2018-12-26T02:01:51.109Z,23.2
2018-12-26T02:02:53.001Z,23.2
2018-12-26T02:03:55.449Z,23.2
2018-12-26T02:04:57.865Z,23.2
2018-12-26T02:06:00.305Z,23.2
2018-12-26T02:07:02.729Z,23.2
2018-12-26T02:08:04.908Z,23.2
2018-12-26T02:09:07.334Z,23.2
2018-12-26T02:10:08.963Z,23.2
2018-12-26T02:11:11.391Z,23.2
2018-12-26T02:12:13.535Z,23.2
2018-12-26T02:13:15.696Z,23.3
2018-12-26T02:14:18.123Z,23.3
2018-12-26T02:15:20.373Z,23.3
2018-12-26T02:16:22.861Z,23.3
2018-12-26T02:17:25.030Z,23.3
2018-12-26T02:18:27.173Z,23.3
2018-12-26T02:19:29.605Z,23.3
2018-12-26T02:20:32.019Z,23.3
2018-12-26T02:21:34.185Z,23.3
2018-12-26T02:22:36.339Z,23.3
2018-12-26T02:23:38.763Z,23.3
2018-12-26T02:24:40.655Z,23.3
2018-12-26T02:25:43.088Z,23.3
2018-12-26T02:26:45.313Z,23.3
2018-12-26T02:27:47.761Z,23.3
2018-12-26T02:28:49.914Z,23.3
2018-12-26T02:29:52.345Z,23.3
2018-12-26T02:30:54.225Z,23.3
2018-12-26T02:31:56.674Z,23.3
2018-12-26T02:32:59.115Z,23.3
2018-12-26T02:34:01.536Z,23.3
2018-12-26T02:35:03.956Z,23.3
2018-12-26T02:36:06.391Z,23.3
2018-12-26T02:37:08.811Z,23.3
2018-12-26T02:38:10.981Z,23.3
2018-12-26T02:39:13.406Z,23.3
2018-12-26T02:40:15.825Z,23.4
2018-12-26T02:41:18.255Z,23.3
2018-12-26T02:42:20.418Z,23.3
2018-12-26T02:43:22.833Z,23.3
2018-12-26T02:44:25.267Z,23.4
2018-12-26T02:45:27.718Z,23.4
2018-12-26T02:46:29.605Z,23.4
2018-12-26T02:47:31.759Z,23.4
2018-12-26T02:48:33.920Z,23.4
2018-12-26T02:49:36.077Z,23.4
2018-12-26T02:50:38.498Z,23.4
2018-12-26T02:51:40.935Z,23.4
2018-12-26T02:52:43.361Z,23.4
2018-12-26T02:53:45.795Z,23.4
2018-12-26T02:54:48.227Z,23.4
2018-12-26T02:55:50.383Z,23.4
2018-12-26T02:56:52.816Z,23.4
2018-12-26T02:57:55.253Z,23.4
2018-12-26T02:58:57.131Z,23.4
2018-12-26T02:59:59.578Z,23.4
2018-12-26T03:01:01.931Z,23.4
2018-12-26T03:02:04.363Z,23.4
2018-12-26T03:03:06.792Z,23.4
2018-12-26T03:04:09.216Z,23.4
2018-12-26T03:05:11.349Z,23.4
2018-12-26T03:06:13.782Z,23.4
2018-12-26T03:07:16.205Z,23.4
2018-12-26T03:08:18.654Z,23.4
2018-12-26T03:09:20.819Z,23.4
2018-12-26T03:10:22.983Z,23.4
2018-12-26T03:11:25.419Z,23.4
2018-12-26T03:12:27.855Z,23.4
2018-12-26T03:13:30.001Z,23.4
2018-12-26T03:14:32.439Z,23.4
2018-12-26T03:15:34.319Z,23.4
2018-12-26T03:16:36.492Z,23.4
2018-12-26T03:17:38.630Z,23.4
2018-12-26T03:18:41.058Z,23.4
2018-12-26T03:19:43.489Z,23.4
2018-12-26T03:20:45.925Z,23.4
2018-12-26T03:21:48.343Z,23.4
2018-12-26T03:22:50.842Z,23.4
2018-12-26T03:23:53.281Z,23.4
2018-12-26T03:24:55.170Z,23.4
2018-12-26T03:25:57.601Z,23.4
2018-12-26T03:27:00.046Z,23.4
2018-12-26T03:28:02.469Z,23.4
2018-12-26T03:29:04.636Z,23.4
2018-12-26T03:30:07.075Z,23.4
2018-12-26T03:31:09.513Z,23.4
2018-12-26T03:32:11.940Z,23.4
2018-12-26T03:33:14.642Z,23.4
2018-12-26T03:34:16.797Z,23.4
2018-12-26T03:35:19.234Z,23.4
2018-12-26T03:36:21.667Z,23.4
2018-12-26T03:37:23.599Z,23.4
2018-12-26T03:38:25.457Z,23.4
2018-12-26T03:39:27.881Z,23.4
2018-12-26T03:40:30.319Z,23.4
2018-12-26T03:41:32.482Z,23.4
2018-12-26T03:42:34.731Z,23.4
2018-12-26T03:43:36.593Z,23.4
2018-12-26T03:44:38.734Z,23.4
2018-12-26T03:45:41.155Z,23.4
2018-12-26T03:46:43.577Z,23.5
2018-12-26T03:47:46.024Z,23.5
2018-12-26T03:48:48.453Z,23.4
2018-12-26T03:49:50.883Z,23.5
2018-12-26T03:50:53.062Z,23.5
2018-12-26T03:51:55.215Z,23.5
2018-12-26T03:52:57.090Z,23.5
2018-12-26T03:53:59.534Z,23.5
2018-12-26T03:55:01.963Z,23.5
2018-12-26T03:56:04.395Z,23.5
2018-12-26T03:57:07.654Z,23.5
2018-12-26T03:58:09.862Z,23.5
2018-12-26T03:59:12.294Z,23.5
2018-12-26T04:00:14.203Z,23.5
2018-12-26T04:01:16.624Z,23.5
2018-12-26T04:02:18.787Z,23.4
2018-12-26T04:03:21.213Z,23.4
2018-12-26T04:04:23.372Z,23.4
2018-12-26T04:05:25.802Z,23.4
2018-12-26T04:06:28.246Z,23.4
2018-12-26T04:07:30.674Z,23.4
2018-12-26T04:08:32.830Z,23.4
2018-12-26T04:09:35.252Z,23.4
2018-12-26T04:10:37.834Z,23.4
2018-12-26T04:11:39.983Z,23.3
2018-12-26T04:12:42.423Z,23.3
2018-12-26T04:13:44.854Z,23.3
2018-12-26T04:14:47.291Z,23.3
2018-12-26T04:15:49.163Z,23.3
2018-12-26T04:16:51.604Z,23.3
2018-12-26T04:17:53.882Z,23.3
2018-12-26T04:18:56.054Z,23.3
2018-12-26T04:19:57.634Z,23.3
2018-12-26T04:20:59.526Z,23.2
2018-12-26T04:22:01.962Z,23.2
2018-12-26T04:23:04.394Z,23.2
2018-12-26T04:24:06.843Z,23.2
2018-12-26T04:25:09.510Z,23.2
2018-12-26T04:26:11.939Z,23.2
2018-12-26T04:28:19.078Z,23.2
2018-12-26T04:29:20.947Z,23.2
2018-12-26T04:30:22.814Z,23.2
2018-12-26T04:31:25.248Z,23.2
2018-12-26T04:32:27.393Z,23.2
2018-12-26T04:33:29.260Z,23.2
2018-12-26T04:34:31.409Z,23.2
2018-12-26T04:35:33.834Z,23.2
2018-12-26T04:36:36.259Z,23.2
2018-12-26T04:37:38.695Z,23.1
2018-12-26T04:38:40.866Z,23.2
2018-12-26T04:39:43.017Z,23.1
2018-12-26T04:40:45.453Z,23.1
2018-12-26T04:41:47.894Z,23.1
2018-12-26T04:42:50.323Z,23.1
2018-12-26T04:43:52.750Z,23.1
2018-12-26T04:44:55.195Z,23.1
2018-12-26T04:45:57.654Z,23.1
2018-12-26T04:47:00.075Z,23.1
2018-12-26T04:48:02.502Z,23.1
2018-12-26T04:49:04.926Z,23.1
2018-12-26T04:50:07.355Z,23.1
2018-12-26T04:51:09.548Z,23.1
2018-12-26T04:52:11.694Z,23.1
2018-12-26T04:53:13.559Z,23.1
2018-12-26T04:54:15.928Z,23.1
2018-12-26T04:55:18.341Z,23.1
2018-12-26T04:56:20.793Z,23.1
2018-12-26T04:58:27.930Z,23.1
2018-12-26T04:59:30.082Z,23.1
2018-12-26T05:00:32.507Z,23.1
2018-12-26T05:01:34.938Z,23.1
2018-12-26T05:02:37.363Z,23.1
2018-12-26T05:03:39.514Z,23.1
2018-12-26T05:04:41.678Z,23.1
2018-12-26T05:05:43.588Z,23.1
2018-12-26T05:06:45.740Z,23.1
2018-12-26T05:07:48.167Z,23.1
2018-12-26T05:08:50.324Z,23.1
2018-12-26T05:09:52.757Z,23.1
2018-12-26T05:10:54.926Z,23.1
2018-12-26T05:11:57.450Z,23.1
2018-12-26T05:12:59.643Z,23.1
2018-12-26T05:14:02.094Z,23.1
2018-12-26T05:15:04.524Z,23.1
2018-12-26T05:16:06.710Z,23.1
2018-12-26T05:17:08.868Z,23.1
2018-12-26T05:18:10.727Z,23.1
2018-12-26T05:19:13.151Z,23.1
2018-12-26T05:20:15.587Z,23.1
2018-12-26T05:21:18.024Z,23.1
2018-12-26T05:22:20.174Z,23.1
2018-12-26T05:23:22.586Z,23.1
2018-12-26T05:24:25.023Z,23.1
2018-12-26T05:25:27.554Z,23.1
2018-12-26T05:26:30.012Z,23.1
2018-12-26T05:28:37.154Z,23.1
2018-12-26T05:29:39.349Z,23.1
2018-12-26T05:30:41.510Z,23.1
2018-12-26T05:31:43.664Z,23.1
2018-12-26T05:32:46.084Z,23.1
2018-12-26T05:33:48.224Z,23.1
2018-12-26T05:34:50.408Z,23.1
2018-12-26T05:35:52.840Z,23.1
2018-12-26T05:36:55.261Z,23.1
2018-12-26T05:37:57.691Z,23.1
2018-12-26T05:38:59.648Z,23.1
2018-12-26T05:40:02.070Z,23.1
2018-12-26T05:41:04.230Z,23.1
2018-12-26T05:42:06.674Z,23.1
2018-12-26T05:43:08.844Z,23.1
2018-12-26T05:44:11.265Z,23.1
2018-12-26T05:45:13.164Z,23.1
2018-12-26T05:46:17.258Z,23.1
2018-12-26T05:47:19.501Z,23.1
2018-12-26T05:48:21.701Z,23.1
2018-12-26T05:49:24.145Z,23.1
2018-12-26T05:50:26.594Z,23.1
2018-12-26T05:51:28.754Z,23.1
2018-12-26T05:52:31.184Z,23.1
2018-12-26T05:53:33.344Z,23.1
2018-12-26T05:54:35.804Z,23.1
2018-12-26T05:55:37.964Z,23.1
2018-12-26T05:56:39.845Z,23.1
2018-12-26T05:57:44.088Z,23.1
2018-12-26T05:58:45.959Z,23.1
2018-12-26T05:59:48.382Z,23.1
2018-12-26T06:00:50.550Z,23.1
2018-12-26T06:01:52.994Z,23.1
2018-12-26T06:02:55.418Z,23.1
2018-12-26T06:03:57.571Z,23.1
2018-12-26T06:04:59.724Z,23.1
2018-12-26T06:06:01.884Z,23.1
2018-12-26T06:07:04.304Z,23.1
2018-12-26T06:08:06.191Z,23.1
2018-12-26T06:09:08.628Z,23.1
2018-12-26T06:10:11.074Z,23.1
2018-12-26T06:11:13.212Z,23.1
2018-12-26T06:12:15.360Z,23.1
2018-12-26T06:13:17.792Z,23.1
2018-12-26T06:14:20.206Z,23.1
2018-12-26T06:15:22.643Z,23.1
2018-12-26T06:16:25.074Z,23.1
2018-12-26T06:17:27.492Z,23.1
2018-12-26T06:18:29.620Z,23.1
2018-12-26T06:19:31.771Z,23.1
2018-12-26T06:20:34.204Z,23.1
2018-12-26T06:21:36.354Z,23.1
2018-12-26T06:22:38.810Z,23.1
2018-12-26T06:23:40.976Z,23.1
2018-12-26T06:24:43.412Z,23.1
2018-12-26T06:25:45.573Z,23.1
2018-12-26T06:26:47.456Z,23.1
2018-12-26T06:28:54.874Z,23.1
2018-12-26T06:29:57.309Z,23.1
2018-12-26T06:30:59.468Z,23.1
2018-12-26T06:32:01.656Z,23.1
2018-12-26T06:33:03.814Z,23.1
2018-12-26T06:34:05.947Z,23.1
2018-12-26T06:35:08.374Z,23.1
2018-12-26T06:36:10.522Z,23.1
2018-12-26T06:37:12.674Z,23.1
2018-12-26T06:38:14.833Z,23.1
2018-12-26T06:39:17.346Z,23.1
2018-12-26T06:40:19.782Z,23.1
2018-12-26T06:41:21.940Z,23.1
2018-12-26T06:42:24.370Z,23.1
2018-12-26T06:43:26.802Z,23.1
2018-12-26T06:44:28.660Z,23.1
2018-12-26T06:45:30.824Z,23.1
2018-12-26T06:47:41.356Z,23.1
2018-12-26T06:48:43.884Z,23.1
2018-12-26T06:49:46.410Z,23.1
2018-12-26T06:50:48.848Z,23.1
2018-12-26T06:51:51.302Z,23.1
2018-12-26T06:52:53.734Z,23.1
2018-12-26T06:53:55.886Z,23.1
2018-12-26T06:54:58.342Z,23.1
2018-12-26T06:56:00.514Z,23.1
2018-12-26T06:57:02.928Z,23.1
2018-12-26T06:58:05.351Z,23.1
2018-12-26T06:59:07.773Z,23.1
2018-12-26T07:00:10.212Z,23.1
2018-12-26T07:01:12.626Z,23.1
2018-12-26T07:02:14.770Z,23.1
2018-12-26T07:03:16.930Z,23.1
2018-12-26T07:04:19.078Z,23.1
2018-12-26T07:05:21.512Z,23.1
2018-12-26T07:06:23.384Z,23.1
2018-12-26T07:07:25.824Z,23.1
2018-12-26T07:08:28.264Z,23.1
2018-12-26T07:09:30.413Z,23.1
2018-12-26T07:10:32.844Z,23.1
2018-12-26T07:11:34.712Z,23.1
2018-12-26T07:12:37.155Z,23.1
2018-12-26T07:13:39.572Z,23.1
2018-12-26T07:14:42.022Z,23.1
2018-12-26T07:15:43.938Z,23.1
2018-12-26T07:16:46.070Z,23.1
2018-12-26T07:17:48.226Z,23.1
2018-12-26T07:18:50.674Z,23.1
2018-12-26T07:19:52.835Z,23.1
2018-12-26T07:20:55.349Z,23.1
2018-12-26T07:21:57.512Z,23.1
2018-12-26T07:22:59.952Z,23.1
2018-12-26T07:24:02.374Z,23.1
2018-12-26T07:25:04.793Z,23.1
2018-12-26T07:26:07.230Z,23.1
2018-12-26T07:27:09.391Z,23.1
2018-12-26T07:28:12.171Z,23.1
2018-12-26T07:29:14.586Z,23.1
2018-12-26T07:30:17.155Z,23.1
2018-12-26T07:31:19.587Z,23.1
2018-12-26T07:32:22.015Z,23.1
2018-12-26T07:33:24.164Z,23.1
2018-12-26T07:34:26.314Z,23.1
2018-12-26T07:35:28.480Z,23.1
2018-12-26T07:36:30.896Z,23
2018-12-26T07:37:33.038Z,23.1
2018-12-26T07:38:35.212Z,23.1
2018-12-26T07:39:37.651Z,23.1
2018-12-26T07:40:39.813Z,23.1
2018-12-26T07:41:41.711Z,23.1
2018-12-26T07:42:43.914Z,23.1
2018-12-26T07:43:46.098Z,23.1
2018-12-26T07:44:48.521Z,23.1
2018-12-26T07:45:50.666Z,23.1
2018-12-26T07:46:52.800Z,23.1
2018-12-26T07:47:54.957Z,23.1
2018-12-26T07:48:56.855Z,23.1
2018-12-26T07:49:59.042Z,23.1
2018-12-26T07:51:01.176Z,23.1
2018-12-26T07:52:03.346Z,23
2018-12-26T07:53:05.780Z,23.1
2018-12-26T07:54:07.938Z,23.1
2018-12-26T07:55:10.105Z,23.1
2018-12-26T07:56:12.287Z,23.1
2018-12-26T07:57:14.454Z,23.1
2018-12-26T07:58:18.740Z,23.1
2018-12-26T07:59:21.165Z,23
2018-12-26T08:00:23.811Z,23.1
2018-12-26T08:01:25.973Z,23
2018-12-26T08:02:28.212Z,23
2018-12-26T08:03:30.653Z,23.1
2018-12-26T08:04:33.071Z,23
2018-12-26T08:05:35.309Z,23
2018-12-26T08:06:37.449Z,23
2018-12-26T08:07:39.587Z,23
2018-12-26T08:08:41.743Z,23
2018-12-26T08:09:44.183Z,23
2018-12-26T08:10:46.080Z,23
2018-12-26T08:11:48.509Z,23
2018-12-26T08:12:50.986Z,23
2018-12-26T08:13:53.392Z,23
2018-12-26T08:14:55.701Z,23
2018-12-26T08:15:58.090Z,23
2018-12-26T08:17:00.594Z,23
2018-12-26T08:18:02.755Z,23
2018-12-26T08:19:04.913Z,23
2018-12-26T08:20:06.558Z,23
2018-12-26T08:21:08.995Z,23
2018-12-26T08:22:11.425Z,23
2018-12-26T08:23:13.851Z,23
2018-12-26T08:24:16.003Z,23
2018-12-26T08:25:18.427Z,23
2018-12-26T08:26:20.868Z,23
2018-12-26T08:27:23.301Z,23
2018-12-26T08:28:27.703Z,23
2018-12-26T08:29:30.221Z,23
2018-12-26T08:30:32.390Z,23
2018-12-26T08:31:34.243Z,23
2018-12-26T08:32:36.391Z,23
2018-12-26T08:33:38.525Z,23
2018-12-26T08:34:40.992Z,23
2018-12-26T08:35:43.143Z,23
2018-12-26T08:36:44.765Z,23
2018-12-26T08:37:46.915Z,23
2018-12-26T08:38:49.083Z,23
2018-12-26T08:39:51.327Z,23
2018-12-26T08:40:53.745Z,23
2018-12-26T08:41:55.352Z,23
2018-12-26T08:42:56.954Z,23
2018-12-26T08:43:59.130Z,23
2018-12-26T08:45:01.272Z,23
2018-12-26T08:46:03.444Z,23
2018-12-26T08:47:05.596Z,23
2018-12-26T08:48:08.106Z,23
2018-12-26T08:49:10.296Z,23
2018-12-26T08:50:12.765Z,23
2018-12-26T08:51:14.667Z,23
2018-12-26T08:52:17.093Z,23
2018-12-26T08:53:18.987Z,23
2018-12-26T08:54:21.414Z,23
2018-12-26T08:55:23.585Z,23
2018-12-26T08:56:25.725Z,23.1
2018-12-26T08:57:28.248Z,23.1
2018-12-26T08:59:35.925Z,23
2018-12-26T09:00:38.285Z,23.1
2018-12-26T09:01:40.434Z,23.1
2018-12-26T09:02:42.857Z,23
2018-12-26T09:03:44.495Z,23
2018-12-26T09:04:46.927Z,23.1
2018-12-26T09:05:49.105Z,23.1
2018-12-26T09:06:51.549Z,23.1
2018-12-26T09:07:53.429Z,23.1
2018-12-26T09:08:55.664Z,23.1
2018-12-26T09:09:58.103Z,23.1
2018-12-26T09:11:00.555Z,23.1
2018-12-26T09:12:03.008Z,23.1
2018-12-26T09:13:05.171Z,23.1
2018-12-26T09:14:07.334Z,23.1
2018-12-26T09:15:09.794Z,23.1
2018-12-26T09:16:11.674Z,23.1
2018-12-26T09:17:14.114Z,23.1
2018-12-26T09:18:16.274Z,23.1
2018-12-26T09:19:18.443Z,23.1
2018-12-26T09:20:20.862Z,23.1
2018-12-26T09:21:23.304Z,23.1
2018-12-26T09:22:25.447Z,23.1
2018-12-26T09:23:27.616Z,23.1
2018-12-26T09:24:29.754Z,23.1
2018-12-26T09:25:31.914Z,23.1
2018-12-26T09:26:34.491Z,23.1
2018-12-26T09:27:38.220Z,23
2018-12-26T09:29:46.544Z,23.1
2018-12-26T09:30:48.971Z,23
2018-12-26T09:31:50.956Z,23.1
2018-12-26T09:32:52.855Z,23
2018-12-26T09:33:55.045Z,23.1
2018-12-26T09:34:57.466Z,23.1
2018-12-26T09:35:59.641Z,23.1
2018-12-26T09:37:02.064Z,23.1
2018-12-26T09:38:04.278Z,23.1
2018-12-26T09:39:06.719Z,23.1
2018-12-26T09:40:09.142Z,23.1
2018-12-26T09:41:11.020Z,23.1
2018-12-26T09:42:13.452Z,23.1
2018-12-26T09:43:15.634Z,23.1
2018-12-26T09:44:17.886Z,23.1
2018-12-26T09:45:20.422Z,23.1
2018-12-26T09:46:22.566Z,23.1
2018-12-26T09:47:25.006Z,23.1
2018-12-26T09:48:27.434Z,23.1
2018-12-26T09:49:29.870Z,23.1
2018-12-26T09:50:32.321Z,23.1
2018-12-26T09:51:34.483Z,23.1
2018-12-26T09:52:36.656Z,23.1
2018-12-26T09:53:38.816Z,23.1
2018-12-26T09:54:40.697Z,23.1
2018-12-26T09:55:43.134Z,23.1
2018-12-26T09:56:45.321Z,23.1
2018-12-26T09:57:47.760Z,23.1
2018-12-26T09:59:54.922Z,23.1
2018-12-26T10:00:57.350Z,23.1
2018-12-26T10:01:59.770Z,23.1
2018-12-26T10:03:02.018Z,23.1
2018-12-26T10:04:04.258Z,23.1
2018-12-26T10:05:06.404Z,23.1
2018-12-26T10:06:08.904Z,23.1
2018-12-26T10:07:11.339Z,23.1
2018-12-26T10:08:13.782Z,23.1
2018-12-26T10:09:15.964Z,23.1
2018-12-26T10:10:18.115Z,23.1
2018-12-26T10:11:20.282Z,23.1
2018-12-26T10:12:22.454Z,23.1
2018-12-26T10:13:24.911Z,23.1
2018-12-26T10:14:27.334Z,23.1
2018-12-26T10:15:29.774Z,23.1
2018-12-26T10:16:32.217Z,23.1
2018-12-26T10:17:34.392Z,23
2018-12-26T10:18:36.552Z,23
2018-12-26T10:19:39.045Z,23
2018-12-26T10:20:41.470Z,23
2018-12-26T10:21:43.645Z,23
2018-12-26T10:22:45.804Z,23
2018-12-26T10:23:48.255Z,23
2018-12-26T10:24:50.682Z,23
2018-12-26T10:25:52.853Z,23
2018-12-26T10:26:55.275Z,23
2018-12-26T10:27:57.705Z,23
2018-12-26T10:29:01.802Z,23
2018-12-26T10:30:03.783Z,23
2018-12-26T10:31:06.212Z,23
2018-12-26T10:32:08.656Z,23
2018-12-26T10:33:10.804Z,23
2018-12-26T10:34:12.980Z,23
2018-12-26T10:35:15.156Z,23
2018-12-26T10:36:17.592Z,23
2018-12-26T10:37:19.193Z,23
2018-12-26T10:38:21.615Z,23
2018-12-26T10:39:23.771Z,23
2018-12-26T10:40:25.658Z,23
2018-12-26T10:41:28.091Z,23
2018-12-26T10:42:30.526Z,23
2018-12-26T10:43:32.694Z,23
2018-12-26T10:44:34.578Z,23
2018-12-26T10:45:37.032Z,23
2018-12-26T10:46:39.024Z,23
2018-12-26T10:47:41.452Z,23
2018-12-26T10:48:43.880Z,23
2018-12-26T10:49:46.318Z,23
2018-12-26T10:50:48.490Z,23
2018-12-26T10:51:50.724Z,23
2018-12-26T10:52:52.882Z,23
2018-12-26T10:53:55.051Z,23
2018-12-26T10:54:57.228Z,23
2018-12-26T10:55:59.382Z,23
2018-12-26T10:57:01.258Z,23
2018-12-26T10:58:03.145Z,23
2018-12-26T11:00:10.013Z,23
2018-12-26T11:01:11.958Z,23
2018-12-26T11:02:14.380Z,23
2018-12-26T11:03:16.815Z,23
2018-12-26T11:04:19.241Z,23
2018-12-26T11:06:26.655Z,23
2018-12-26T11:07:28.804Z,23
2018-12-26T11:08:31.241Z,23
2018-12-26T11:09:33.675Z,23
2018-12-26T11:10:36.202Z,23
2018-12-26T11:11:38.090Z,23
2018-12-26T11:12:40.540Z,23
2018-12-26T11:13:42.410Z,23
2018-12-26T11:14:44.299Z,23
2018-12-26T11:15:46.732Z,23
2018-12-26T11:16:49.159Z,23
2018-12-26T11:17:50.778Z,23
2018-12-26T11:18:52.957Z,23
2018-12-26T11:19:55.107Z,23
2018-12-26T11:20:57.547Z,23
2018-12-26T11:22:01.009Z,23
2018-12-26T11:23:03.433Z,23
2018-12-26T11:24:05.874Z,23
2018-12-26T11:25:08.024Z,23
2018-12-26T11:26:10.471Z,23
2018-12-26T11:27:12.904Z,23
2018-12-26T11:28:15.043Z,23
2018-12-26T11:30:22.193Z,23
2018-12-26T11:31:24.633Z,23
2018-12-26T11:32:27.075Z,23
2018-12-26T11:33:29.512Z,23
2018-12-26T11:34:31.769Z,23
2018-12-26T11:35:34.193Z,23
2018-12-26T11:36:36.331Z,23
2018-12-26T11:37:38.764Z,23
2018-12-26T11:38:41.213Z,23
2018-12-26T11:39:43.645Z,23.1
2018-12-26T11:40:45.800Z,23.1
2018-12-26T11:41:47.772Z,23.1
2018-12-26T11:42:50.205Z,23
2018-12-26T11:43:52.358Z,23.1
2018-12-26T11:44:54.783Z,23.1
2018-12-26T11:45:56.953Z,23
2018-12-26T11:46:59.476Z,23.1
2018-12-26T11:48:01.645Z,23.1
2018-12-26T11:49:03.819Z,23.1
2018-12-26T11:50:06.271Z,23
2018-12-26T11:51:08.449Z,23.1
2018-12-26T11:52:10.883Z,23.1
2018-12-26T11:53:12.495Z,23
2018-12-26T11:54:14.925Z,23
2018-12-26T11:55:17.092Z,23
2018-12-26T11:56:19.527Z,23
2018-12-26T11:57:21.979Z,23
2018-12-26T11:58:23.863Z,23
2018-12-26T11:59:28.358Z,23
2018-12-26T12:00:30.783Z,23
2018-12-26T12:01:33.210Z,23.1
2018-12-26T12:02:35.642Z,23
2018-12-26T12:03:38.071Z,23
2018-12-26T12:04:39.971Z,23
2018-12-26T12:05:42.393Z,23
2018-12-26T12:06:44.844Z,23
2018-12-26T12:07:47.023Z,23
2018-12-26T12:08:49.459Z,23
2018-12-26T12:09:51.621Z,23.1
2018-12-26T12:10:53.789Z,23
2018-12-26T12:11:56.217Z,23
2018-12-26T12:12:58.373Z,23
2018-12-26T12:14:00.808Z,23
2018-12-26T12:15:03.240Z,23
2018-12-26T12:16:05.444Z,23
2018-12-26T12:17:07.603Z,23
2018-12-26T12:18:09.776Z,23
2018-12-26T12:19:12.199Z,23
2018-12-26T12:20:14.367Z,23
2018-12-26T12:21:16.634Z,23
2018-12-26T12:22:19.072Z,23
2018-12-26T12:23:21.253Z,23
2018-12-26T12:24:23.680Z,23
2018-12-26T12:25:25.841Z,23
2018-12-26T12:26:29.388Z,23
2018-12-26T12:27:31.828Z,23
2018-12-26T12:28:33.996Z,23
2018-12-26T12:29:37.233Z,23
2018-12-26T12:30:39.398Z,23
2018-12-26T12:31:41.542Z,23
2018-12-26T12:32:43.726Z,23
2018-12-26T12:33:45.908Z,23
2018-12-26T12:34:48.341Z,23
2018-12-26T12:35:50.764Z,23
2018-12-26T12:36:52.944Z,23
2018-12-26T12:37:55.373Z,23
2018-12-26T12:38:57.799Z,23
2018-12-26T12:40:00.317Z,23
2018-12-26T12:41:02.768Z,23
2018-12-26T12:42:05.220Z,23
2018-12-26T12:43:07.380Z,23
2018-12-26T12:44:09.539Z,23
2018-12-26T12:45:11.692Z,23
2018-12-26T12:46:13.863Z,23
2018-12-26T12:47:16.041Z,23
2018-12-26T12:48:18.477Z,23
2018-12-26T12:49:20.729Z,23
2018-12-26T12:50:23.162Z,23
2018-12-26T12:51:25.595Z,23
2018-12-26T12:52:28.018Z,23
2018-12-26T12:53:30.439Z,23
2018-12-26T12:54:32.614Z,23
2018-12-26T12:55:35.054Z,23
2018-12-26T12:56:37.492Z,23
2018-12-26T12:57:39.653Z,23
2018-12-26T12:58:42.096Z,23
2018-12-26T12:59:46.090Z,23
2018-12-26T13:00:48.525Z,23
2018-12-26T13:01:50.685Z,23
2018-12-26T13:03:57.525Z,23
2018-12-26T13:04:59.956Z,23
2018-12-26T13:06:02.390Z,23
2018-12-26T13:07:04.496Z,23
2018-12-26T13:08:07.205Z,23
2018-12-26T13:09:09.383Z,23
2018-12-26T13:10:11.349Z,23
2018-12-26T13:11:13.495Z,23
2018-12-26T13:12:15.663Z,23
2018-12-26T13:13:18.095Z,23
2018-12-26T13:14:20.531Z,23
2018-12-26T13:15:22.793Z,23
2018-12-26T13:16:24.945Z,23
2018-12-26T13:17:27.385Z,23
2018-12-26T13:18:29.549Z,23
2018-12-26T13:19:32.145Z,23
2018-12-26T13:20:34.313Z,23
2018-12-26T13:21:36.524Z,23
2018-12-26T13:22:39.012Z,23
2018-12-26T13:23:41.223Z,23
2018-12-26T13:24:43.100Z,23.1
2018-12-26T13:25:45.275Z,23.1
2018-12-26T13:26:47.420Z,23.1
2018-12-26T13:27:49.846Z,23.2
2018-12-26T13:28:52.005Z,23.2
2018-12-26T13:29:55.113Z,23.2
2018-12-26T13:32:02.519Z,23.3
2018-12-26T13:33:04.723Z,23.4
2018-12-26T13:34:07.133Z,23.4
2018-12-26T13:35:09.573Z,23.5
2018-12-26T13:36:12.043Z,23.5
2018-12-26T13:37:14.471Z,23.5
2018-12-26T13:38:16.902Z,23.6
2018-12-26T13:39:19.335Z,23.6
2018-12-26T13:40:22.103Z,23.7
2018-12-26T13:41:24.537Z,23.7
2018-12-26T13:42:26.983Z,23.7
2018-12-26T13:43:29.131Z,23.8
2018-12-26T13:44:31.023Z,23.8
2018-12-26T13:45:33.174Z,23.8
2018-12-26T13:46:35.603Z,23.8
2018-12-26T13:47:38.032Z,23.8
2018-12-26T13:48:40.556Z,23.9
2018-12-26T13:49:42.971Z,23.9
2018-12-26T13:50:45.174Z,23.9
2018-12-26T13:51:47.321Z,23.9
2018-12-26T13:52:49.764Z,23.9
2018-12-26T13:53:52.202Z,24
2018-12-26T13:54:54.649Z,24
2018-12-26T13:55:56.526Z,24
2018-12-26T13:56:58.953Z,24
2018-12-26T13:58:01.116Z,24
2018-12-26T13:59:03.540Z,24
2018-12-26T14:00:05.689Z,24
2018-12-26T14:01:08.128Z,24.1
2018-12-26T14:02:10.286Z,24.1
2018-12-26T14:03:12.454Z,24.1
2018-12-26T14:04:14.609Z,24.1
2018-12-26T14:05:17.043Z,24.1
2018-12-26T14:06:19.170Z,24.1
2018-12-26T14:07:21.049Z,24.2
2018-12-26T14:08:23.220Z,24.2
2018-12-26T14:09:25.654Z,24.2
2018-12-26T14:10:28.094Z,24.2
2018-12-26T14:11:30.531Z,24.2
2018-12-26T14:12:32.957Z,24.2
2018-12-26T14:13:35.382Z,24.2
2018-12-26T14:14:37.823Z,24.3
2018-12-26T14:15:39.987Z,24.3
2018-12-26T14:16:42.423Z,24.3
2018-12-26T14:17:44.854Z,24.3
2018-12-26T14:18:47.282Z,24.3
2018-12-26T14:19:49.701Z,24.3
2018-12-26T14:20:51.845Z,24.3